sensor_id;sensor_type;location;lat;lon;timestamp;P1;P2;P0
34176;PMS7003;20450;49.074;9.158;2023-04-05T00:02:03;20.67;20.67;15.00
34176;PMS7003;20450;49.074;9.158;2023-04-05T00:04:30;22.00;20.00;14.67
34176;PMS7003;20450;49.074;9.158;2023-04-05T00:06:58;14.33;13.00;11.00
34176;PMS7003;20450;49.074;9.158;2023-04-05T00:09:26;22.67;20.33;15.00
34176;PMS7003;20450;49.074;9.158;2023-04-05T00:11:53;17.67;17.67;15.33
34176;PMS7003;20450;49.074;9.158;2023-04-05T00:14:20;19.00;18.00;13.00
34176;PMS7003;20450;49.074;9.158;2023-04-05T00:16:46;18.00;18.00;15.33
34176;PMS7003;20450;49.074;9.158;2023-04-05T00:19:15;18.67;13.00;8.00
34176;PMS7003;20450;49.074;9.158;2023-04-05T00:21:42;17.33;16.00;12.33
34176;PMS7003;20450;49.074;9.158;2023-04-05T00:24:09;24.33;21.00;16.67
34176;PMS7003;20450;49.074;9.158;2023-04-05T00:26:36;24.67;24.00;17.00
34176;PMS7003;20450;49.074;9.158;2023-04-05T00:29:03;17.67;16.33;12.00
34176;PMS7003;20450;49.074;9.158;2023-04-05T00:31:30;25.33;22.33;16.67
34176;PMS7003;20450;49.074;9.158;2023-04-05T00:33:57;22.33;21.00;17.00
34176;PMS7003;20450;49.074;9.158;2023-04-05T00:36:25;20.33;20.33;16.00
34176;PMS7003;20450;49.074;9.158;2023-04-05T00:38:53;28.67;24.67;15.00
34176;PMS7003;20450;49.074;9.158;2023-04-05T00:41:22;22.33;20.00;16.67
34176;PMS7003;20450;49.074;9.158;2023-04-05T00:43:48;25.67;24.33;16.67
34176;PMS7003;20450;49.074;9.158;2023-04-05T00:46:15;18.67;17.67;14.67
34176;PMS7003;20450;49.074;9.158;2023-04-05T00:48:42;17.33;17.33;12.00
34176;PMS7003;20450;49.074;9.158;2023-04-05T00:51:10;26.00;24.67;17.67
34176;PMS7003;20450;49.074;9.158;2023-04-05T00:53:38;22.67;20.67;16.67
34176;PMS7003;20450;49.074;9.158;2023-04-05T00:56:06;17.67;17.67;12.67
34176;PMS7003;20450;49.074;9.158;2023-04-05T00:58:34;16.33;16.00;12.67
34176;PMS7003;20450;49.074;9.158;2023-04-05T01:01:02;17.67;16.33;13.33
34176;PMS7003;20450;49.074;9.158;2023-04-05T01:03:35;18.00;18.00;12.33
34176;PMS7003;20450;49.074;9.158;2023-04-05T01:06:10;18.00;15.00;12.00
34176;PMS7003;20450;49.074;9.158;2023-04-05T01:08:58;22.33;19.67;15.33
34176;PMS7003;20450;49.074;9.158;2023-04-05T01:11:40;21.67;19.67;15.00
34176;PMS7003;20450;49.074;9.158;2023-04-05T01:14:10;23.33;21.67;15.67
34176;PMS7003;20450;49.074;9.158;2023-04-05T01:16:37;19.33;17.00;14.00
34176;PMS7003;20450;49.074;9.158;2023-04-05T01:19:04;19.33;18.00;15.00
34176;PMS7003;20450;49.074;9.158;2023-04-05T01:21:44;18.33;17.33;13.00
34176;PMS7003;20450;49.074;9.158;2023-04-05T01:24:38;14.33;14.33;10.00
34176;PMS7003;20450;49.074;9.158;2023-04-05T01:27:43;15.33;15.33;12.67
34176;PMS7003;20450;49.074;9.158;2023-04-05T01:30:38;22.33;20.33;17.33
34176;PMS7003;20450;49.074;9.158;2023-04-05T01:33:12;29.00;26.67;20.67
34176;PMS7003;20450;49.074;9.158;2023-04-05T01:35:51;32.00;30.33;24.00
34176;PMS7003;20450;49.074;9.158;2023-04-05T01:38:25;30.33;28.67;22.33
34176;PMS7003;20450;49.074;9.158;2023-04-05T01:40:54;30.00;27.33;22.33
34176;PMS7003;20450;49.074;9.158;2023-04-05T01:43:21;37.33;33.00;27.00
34176;PMS7003;20450;49.074;9.158;2023-04-05T01:45:50;27.00;27.00;20.67
34176;PMS7003;20450;49.074;9.158;2023-04-05T01:48:17;27.33;27.33;21.33
34176;PMS7003;20450;49.074;9.158;2023-04-05T01:50:44;22.00;19.33;15.33
34176;PMS7003;20450;49.074;9.158;2023-04-05T01:53:11;21.67;21.33;16.33
34176;PMS7003;20450;49.074;9.158;2023-04-05T01:55:39;22.67;21.67;16.33
34176;PMS7003;20450;49.074;9.158;2023-04-05T01:58:07;15.67;15.33;12.67
34176;PMS7003;20450;49.074;9.158;2023-04-05T02:00:34;17.67;17.33;14.00
34176;PMS7003;20450;49.074;9.158;2023-04-05T02:03:02;17.33;17.33;14.33
34176;PMS7003;20450;49.074;9.158;2023-04-05T02:05:30;18.67;18.33;14.67
34176;PMS7003;20450;49.074;9.158;2023-04-05T02:07:58;29.67;24.67;17.67
34176;PMS7003;20450;49.074;9.158;2023-04-05T02:10:25;22.00;19.33;15.67
34176;PMS7003;20450;49.074;9.158;2023-04-05T02:12:53;20.33;18.67;14.33
34176;PMS7003;20450;49.074;9.158;2023-04-05T02:15:20;15.67;13.33;9.00
34176;PMS7003;20450;49.074;9.158;2023-04-05T02:17:47;20.67;20.67;16.00
34176;PMS7003;20450;49.074;9.158;2023-04-05T02:20:15;18.00;16.00;13.00
34176;PMS7003;20450;49.074;9.158;2023-04-05T02:22:42;19.67;17.00;12.00
34176;PMS7003;20450;49.074;9.158;2023-04-05T02:25:09;15.67;15.67;13.00
34176;PMS7003;20450;49.074;9.158;2023-04-05T02:27:37;23.00;20.00;16.67
34176;PMS7003;20450;49.074;9.158;2023-04-05T02:30:05;17.67;17.67;14.00
34176;PMS7003;20450;49.074;9.158;2023-04-05T02:32:33;22.33;19.67;14.67
34176;PMS7003;20450;49.074;9.158;2023-04-05T02:35:01;22.00;20.67;16.33
34176;PMS7003;20450;49.074;9.158;2023-04-05T02:37:29;22.00;22.00;18.00
34176;PMS7003;20450;49.074;9.158;2023-04-05T02:39:56;29.33;26.00;20.00
34176;PMS7003;20450;49.074;9.158;2023-04-05T02:46:31;23.33;22.67;18.00
34176;PMS7003;20450;49.074;9.158;2023-04-05T02:48:59;21.67;20.67;15.00
34176;PMS7003;20450;49.074;9.158;2023-04-05T02:51:28;18.33;18.33;13.67
34176;PMS7003;20450;49.074;9.158;2023-04-05T02:53:57;17.67;15.67;11.00
34176;PMS7003;20450;49.074;9.158;2023-04-05T02:56:24;24.33;20.00;14.67
34176;PMS7003;20450;49.074;9.158;2023-04-05T02:58:51;22.67;20.33;15.00
34176;PMS7003;20450;49.074;9.158;2023-04-05T03:01:22;22.33;20.67;16.67
34176;PMS7003;20450;49.074;9.158;2023-04-05T03:03:49;19.67;19.67;16.00
34176;PMS7003;20450;49.074;9.158;2023-04-05T03:06:16;23.33;21.67;15.67
34176;PMS7003;20450;49.074;9.158;2023-04-05T03:09:07;23.00;21.33;15.67
34176;PMS7003;20450;49.074;9.158;2023-04-05T03:11:35;20.00;20.00;15.33
34176;PMS7003;20450;49.074;9.158;2023-04-05T03:14:02;25.00;24.00;16.67
34176;PMS7003;20450;49.074;9.158;2023-04-05T03:16:40;20.00;20.00;15.00
34176;PMS7003;20450;49.074;9.158;2023-04-05T03:19:18;20.33;19.67;15.33
34176;PMS7003;20450;49.074;9.158;2023-04-05T03:21:45;26.00;23.00;17.00
34176;PMS7003;20450;49.074;9.158;2023-04-05T03:24:24;26.00;23.67;18.00
34176;PMS7003;20450;49.074;9.158;2023-04-05T03:26:54;22.67;21.33;16.00
34176;PMS7003;20450;49.074;9.158;2023-04-05T03:29:23;21.67;18.67;14.67
34176;PMS7003;20450;49.074;9.158;2023-04-05T03:31:52;22.00;21.33;16.67
34176;PMS7003;20450;49.074;9.158;2023-04-05T03:34:21;18.00;17.00;14.00
34176;PMS7003;20450;49.074;9.158;2023-04-05T03:36:49;26.00;22.33;16.67
34176;PMS7003;20450;49.074;9.158;2023-04-05T03:39:33;24.00;24.00;18.33
34176;PMS7003;20450;49.074;9.158;2023-04-05T03:42:00;20.00;20.00;15.67
34176;PMS7003;20450;49.074;9.158;2023-04-05T03:44:27;20.67;20.33;17.00
34176;PMS7003;20450;49.074;9.158;2023-04-05T03:46:54;22.67;21.33;16.00
34176;PMS7003;20450;49.074;9.158;2023-04-05T03:49:22;22.67;22.67;17.67
34176;PMS7003;20450;49.074;9.158;2023-04-05T03:51:49;27.00;26.33;20.67
34176;PMS7003;20450;49.074;9.158;2023-04-05T03:54:17;23.00;21.00;15.67
34176;PMS7003;20450;49.074;9.158;2023-04-05T03:56:45;24.00;22.33;16.67
34176;PMS7003;20450;49.074;9.158;2023-04-05T03:59:16;28.67;26.33;21.67
34176;PMS7003;20450;49.074;9.158;2023-04-05T04:01:43;40.67;36.33;26.00
34176;PMS7003;20450;49.074;9.158;2023-04-05T04:04:10;31.33;29.67;21.67
34176;PMS7003;20450;49.074;9.158;2023-04-05T04:06:39;23.00;23.00;16.00
34176;PMS7003;20450;49.074;9.158;2023-04-05T04:09:07;25.67;21.67;16.00
34176;PMS7003;20450;49.074;9.158;2023-04-05T04:11:34;29.67;26.67;19.33
34176;PMS7003;20450;49.074;9.158;2023-04-05T04:14:05;28.00;25.67;20.00
34176;PMS7003;20450;49.074;9.158;2023-04-05T04:16:44;16.67;16.67;13.00
34176;PMS7003;20450;49.074;9.158;2023-04-05T04:19:36;40.00;32.00;19.00
34176;PMS7003;20450;49.074;9.158;2023-04-05T04:22:21;34.00;29.67;22.33
34176;PMS7003;20450;49.074;9.158;2023-04-05T04:25:09;30.00;26.67;20.67
34176;PMS7003;20450;49.074;9.158;2023-04-05T04:27:56;26.33;25.67;19.67
34176;PMS7003;20450;49.074;9.158;2023-04-05T04:31:01;29.00;25.00;20.67
34176;PMS7003;20450;49.074;9.158;2023-04-05T04:33:51;30.00;29.33;21.00
34176;PMS7003;20450;49.074;9.158;2023-04-05T04:36:36;31.00;28.67;20.33
34176;PMS7003;20450;49.074;9.158;2023-04-05T04:39:32;28.33;26.33;21.00
34176;PMS7003;20450;49.074;9.158;2023-04-05T04:42:32;24.00;24.00;17.33
34176;PMS7003;20450;49.074;9.158;2023-04-05T04:45:12;34.67;27.33;19.67
34176;PMS7003;20450;49.074;9.158;2023-04-05T04:48:02;28.33;27.00;20.00
34176;PMS7003;20450;49.074;9.158;2023-04-05T04:50:49;36.33;33.33;22.67
34176;PMS7003;20450;49.074;9.158;2023-04-05T04:53:17;45.50;40.00;27.50
34176;PMS7003;20450;49.074;9.158;2023-04-05T04:55:44;42.67;36.33;24.33
34176;PMS7003;20450;49.074;9.158;2023-04-05T04:58:11;44.33;39.00;26.33
34176;PMS7003;20450;49.074;9.158;2023-04-05T05:00:42;31.33;31.33;23.00
34176;PMS7003;20450;49.074;9.158;2023-04-05T05:03:10;41.67;32.33;23.00
34176;PMS7003;20450;49.074;9.158;2023-04-05T05:05:42;38.33;34.67;24.33
34176;PMS7003;20450;49.074;9.158;2023-04-05T05:08:10;32.33;31.33;23.00
34176;PMS7003;20450;49.074;9.158;2023-04-05T05:10:39;33.00;29.67;23.00
34176;PMS7003;20450;49.074;9.158;2023-04-05T05:13:07;35.33;32.00;23.33
34176;PMS7003;20450;49.074;9.158;2023-04-05T05:15:34;29.67;28.33;21.00
34176;PMS7003;20450;49.074;9.158;2023-04-05T05:18:01;30.00;29.00;21.67
34176;PMS7003;20450;49.074;9.158;2023-04-05T05:20:31;20.67;20.33;17.00
34176;PMS7003;20450;49.074;9.158;2023-04-05T05:22:58;22.33;21.00;18.00
34176;PMS7003;20450;49.074;9.158;2023-04-05T05:25:25;25.50;22.50;16.50
34176;PMS7003;20450;49.074;9.158;2023-04-05T05:27:54;18.50;18.00;13.50
34176;PMS7003;20450;49.074;9.158;2023-04-05T05:30:23;13.00;8.50;7.00
34176;PMS7003;20450;49.074;9.158;2023-04-05T05:32:51;11.50;11.50;8.50
34176;PMS7003;20450;49.074;9.158;2023-04-05T05:35:18;8.75;8.75;7.25
34176;PMS7003;20450;49.074;9.158;2023-04-05T05:37:46;12.00;9.00;6.25
34176;PMS7003;20450;49.074;9.158;2023-04-05T05:40:13;12.25;9.75;6.50
34176;PMS7003;20450;49.074;9.158;2023-04-05T05:42:40;7.50;7.50;7.00
34176;PMS7003;20450;49.074;9.158;2023-04-05T05:45:08;12.00;9.75;7.00
34176;PMS7003;20450;49.074;9.158;2023-04-05T05:47:36;9.00;9.00;6.50
34176;PMS7003;20450;49.074;9.158;2023-04-05T05:50:03;10.00;10.00;9.00
34176;PMS7003;20450;49.074;9.158;2023-04-05T05:52:33;12.00;9.75;8.50
34176;PMS7003;20450;49.074;9.158;2023-04-05T05:55:01;16.25;10.00;6.75
34176;PMS7003;20450;49.074;9.158;2023-04-05T05:57:28;10.50;10.50;7.00
34176;PMS7003;20450;49.074;9.158;2023-04-05T05:59:55;12.50;12.50;9.00
34176;PMS7003;20450;49.074;9.158;2023-04-05T06:02:22;13.50;13.50;10.00
34176;PMS7003;20450;49.074;9.158;2023-04-05T06:04:50;17.00;14.75;10.00
34176;PMS7003;20450;49.074;9.158;2023-04-05T06:07:17;9.75;9.00;6.00
34176;PMS7003;20450;49.074;9.158;2023-04-05T06:09:43;9.50;9.00;7.50
34176;PMS7003;20450;49.074;9.158;2023-04-05T06:12:12;10.25;10.25;8.50
34176;PMS7003;20450;49.074;9.158;2023-04-05T06:14:39;12.00;12.00;9.00
34176;PMS7003;20450;49.074;9.158;2023-04-05T06:17:06;13.00;11.33;8.33
34176;PMS7003;20450;49.074;9.158;2023-04-05T06:19:33;11.00;11.00;8.33
34176;PMS7003;20450;49.074;9.158;2023-04-05T06:22:00;11.50;11.50;8.00
34176;PMS7003;20450;49.074;9.158;2023-04-05T06:24:27;14.00;14.00;11.00
34176;PMS7003;20450;49.074;9.158;2023-04-05T06:26:54;19.00;13.00;10.00
34176;PMS7003;20450;49.074;9.158;2023-04-05T06:29:23;13.67;13.67;11.33
34176;PMS7003;20450;49.074;9.158;2023-04-05T06:31:50;15.00;15.00;10.00
34176;PMS7003;20450;49.074;9.158;2023-04-05T06:34:17;21.33;18.33;13.33
34176;PMS7003;20450;49.074;9.158;2023-04-05T06:36:45;16.33;14.00;11.00
34176;PMS7003;20450;49.074;9.158;2023-04-05T06:39:12;12.25;12.25;8.50
34176;PMS7003;20450;49.074;9.158;2023-04-05T06:41:39;20.50;18.75;12.00
34176;PMS7003;20450;49.074;9.158;2023-04-05T06:44:06;18.25;18.00;11.75
34176;PMS7003;20450;49.074;9.158;2023-04-05T06:46:35;13.75;12.25;8.75
34176;PMS7003;20450;49.074;9.158;2023-04-05T06:49:02;16.00;15.50;10.25
34176;PMS7003;20450;49.074;9.158;2023-04-05T06:51:29;16.25;16.25;12.25
34176;PMS7003;20450;49.074;9.158;2023-04-05T06:53:56;18.75;18.00;14.00
34176;PMS7003;20450;49.074;9.158;2023-04-05T06:56:23;16.50;15.75;12.25
34176;PMS7003;20450;49.074;9.158;2023-04-05T06:58:51;14.25;14.00;11.25
34176;PMS7003;20450;49.074;9.158;2023-04-05T07:01:18;14.50;13.00;9.00
34176;PMS7003;20450;49.074;9.158;2023-04-05T07:03:46;17.25;16.75;12.25
34176;PMS7003;20450;49.074;9.158;2023-04-05T07:06:13;17.00;15.00;12.75
34176;PMS7003;20450;49.074;9.158;2023-04-05T07:08:40;18.50;16.00;12.75
34176;PMS7003;20450;49.074;9.158;2023-04-05T07:11:07;11.50;11.50;10.00
34176;PMS7003;20450;49.074;9.158;2023-04-05T07:13:34;15.75;13.00;10.50
34176;PMS7003;20450;49.074;9.158;2023-04-05T07:16:01;18.25;15.00;9.75
34176;PMS7003;20450;49.074;9.158;2023-04-05T07:18:29;14.50;14.50;11.00
34176;PMS7003;20450;49.074;9.158;2023-04-05T07:20:58;15.50;15.50;10.50
34176;PMS7003;20450;49.074;9.158;2023-04-05T07:23:26;13.25;12.25;9.00
34176;PMS7003;20450;49.074;9.158;2023-04-05T07:25:54;12.25;12.25;10.25
34176;PMS7003;20450;49.074;9.158;2023-04-05T07:28:24;13.25;13.25;9.25
34176;PMS7003;20450;49.074;9.158;2023-04-05T07:30:51;12.60;12.60;10.20
34176;PMS7003;20450;49.074;9.158;2023-04-05T07:33:19;12.60;12.60;11.20
34176;PMS7003;20450;49.074;9.158;2023-04-05T07:35:50;13.40;12.20;9.80
34176;PMS7003;20450;49.074;9.158;2023-04-05T07:38:19;10.80;10.80;9.40
34176;PMS7003;20450;49.074;9.158;2023-04-05T07:40:47;12.20;11.00;8.80
34176;PMS7003;20450;49.074;9.158;2023-04-05T07:43:14;11.80;11.20;9.60
34176;PMS7003;20450;49.074;9.158;2023-04-05T07:45:41;14.60;12.80;10.40
34176;PMS7003;20450;49.074;9.158;2023-04-05T07:48:08;10.80;10.80;9.40
34176;PMS7003;20450;49.074;9.158;2023-04-05T07:50:39;15.40;13.20;9.80
34176;PMS7003;20450;49.074;9.158;2023-04-05T07:53:07;12.60;12.40;10.40
34176;PMS7003;20450;49.074;9.158;2023-04-05T07:55:37;12.80;11.60;10.60
34176;PMS7003;20450;49.074;9.158;2023-04-05T07:58:04;11.00;11.00;8.80
34176;PMS7003;20450;49.074;9.158;2023-04-05T08:00:31;6.80;6.80;6.40
34176;PMS7003;20450;49.074;9.158;2023-04-05T08:02:58;13.40;13.40;10.60
34176;PMS7003;20450;49.074;9.158;2023-04-05T08:08:48;11.80;11.80;9.40
34176;PMS7003;20450;49.074;9.158;2023-04-05T08:11:17;10.20;10.20;6.60
34176;PMS7003;20450;49.074;9.158;2023-04-05T08:13:45;9.60;9.60;8.20
34176;PMS7003;20450;49.074;9.158;2023-04-05T08:16:11;12.00;12.00;7.80
34176;PMS7003;20450;49.074;9.158;2023-04-05T08:18:38;9.80;9.80;7.80
34176;PMS7003;20450;49.074;9.158;2023-04-05T08:21:05;12.00;12.00;10.40
34176;PMS7003;20450;49.074;9.158;2023-04-05T08:23:32;12.80;12.00;9.20
34176;PMS7003;20450;49.074;9.158;2023-04-05T08:26:00;13.00;12.40;10.40
34176;PMS7003;20450;49.074;9.158;2023-04-05T08:28:28;14.60;13.60;10.20
34176;PMS7003;20450;49.074;9.158;2023-04-05T08:30:55;10.60;10.40;9.20
34176;PMS7003;20450;49.074;9.158;2023-04-05T08:33:22;8.40;7.80;4.00
34176;PMS7003;20450;49.074;9.158;2023-04-05T08:35:49;12.00;11.40;8.60
34176;PMS7003;20450;49.074;9.158;2023-04-05T08:38:16;12.60;12.40;9.20
34176;PMS7003;20450;49.074;9.158;2023-04-05T08:40:44;11.20;11.20;8.60
34176;PMS7003;20450;49.074;9.158;2023-04-05T08:43:13;13.60;12.00;9.00
34176;PMS7003;20450;49.074;9.158;2023-04-05T08:45:52;14.40;10.60;8.00
34176;PMS7003;20450;49.074;9.158;2023-04-05T08:48:23;14.00;10.25;7.00
34176;PMS7003;20450;49.074;9.158;2023-04-05T08:54:10;13.00;13.00;11.00
34176;PMS7003;20450;49.074;9.158;2023-04-05T08:56:37;13.50;12.50;10.50
34176;PMS7003;20450;49.074;9.158;2023-04-05T08:59:06;12.75;12.50;9.75
34176;PMS7003;20450;49.074;9.158;2023-04-05T09:01:38;14.25;13.25;10.25
34176;PMS7003;20450;49.074;9.158;2023-04-05T09:04:11;16.00;14.75;9.75
34176;PMS7003;20450;49.074;9.158;2023-04-05T09:09:47;12.50;10.50;8.00
34176;PMS7003;20450;49.074;9.158;2023-04-05T09:12:21;12.00;11.00;8.00
34176;PMS7003;20450;49.074;9.158;2023-04-05T09:14:51;13.00;13.00;10.50
34176;PMS7003;20450;49.074;9.158;2023-04-05T09:17:20;2.33;2.33;0.67
34176;PMS7003;20450;49.074;9.158;2023-04-05T09:19:49;15.33;15.00;12.00
34176;PMS7003;20450;49.074;9.158;2023-04-05T09:22:16;8.00;8.00;5.50
34176;PMS7003;20450;49.074;9.158;2023-04-05T09:24:44;12.00;10.00;7.50
34176;PMS7003;20450;49.074;9.158;2023-04-05T09:27:16;14.25;13.00;9.25
34176;PMS7003;20450;49.074;9.158;2023-04-05T09:29:52;13.00;10.00;9.00
34176;PMS7003;20450;49.074;9.158;2023-04-05T09:32:24;13.00;12.00;8.00
34176;PMS7003;20450;49.074;9.158;2023-04-05T09:34:53;13.00;12.00;7.00
34176;PMS7003;20450;49.074;9.158;2023-04-05T09:37:27;11.33;11.33;9.33
34176;PMS7003;20450;49.074;9.158;2023-04-05T09:40:00;13.00;12.00;9.00
34176;PMS7003;20450;49.074;9.158;2023-04-05T09:42:31;12.33;10.67;8.33
34176;PMS7003;20450;49.074;9.158;2023-04-05T09:45:10;16.00;10.50;7.25
34176;PMS7003;20450;49.074;9.158;2023-04-05T09:47:59;9.00;9.00;6.50
34176;PMS7003;20450;49.074;9.158;2023-04-05T09:50:26;8.00;8.00;7.00
34176;PMS7003;20450;49.074;9.158;2023-04-05T09:53:07;10.00;8.00;6.00
34176;PMS7003;20450;49.074;9.158;2023-04-05T09:55:35;13.75;11.00;8.25
34176;PMS7003;20450;49.074;9.158;2023-04-05T09:58:03;2.50;2.50;2.50
34176;PMS7003;20450;49.074;9.158;2023-04-05T10:00:30;8.25;8.25;7.50
34176;PMS7003;20450;49.074;9.158;2023-04-05T10:02:59;5.25;5.25;3.50
34176;PMS7003;20450;49.074;9.158;2023-04-05T10:05:27;8.00;7.25;6.00
34176;PMS7003;20450;49.074;9.158;2023-04-05T10:07:55;11.25;11.25;9.00
34176;PMS7003;20450;49.074;9.158;2023-04-05T10:10:23;10.00;9.50;7.00
34176;PMS7003;20450;49.074;9.158;2023-04-05T10:12:51;10.50;10.50;8.50
34176;PMS7003;20450;49.074;9.158;2023-04-05T10:15:19;7.50;7.50;5.00
34176;PMS7003;20450;49.074;9.158;2023-04-05T10:17:50;11.25;11.25;8.00
34176;PMS7003;20450;49.074;9.158;2023-04-05T10:20:22;10.25;8.00;5.00
34176;PMS7003;20450;49.074;9.158;2023-04-05T10:22:59;12.00;10.00;7.00
34176;PMS7003;20450;49.074;9.158;2023-04-05T10:25:43;15.00;13.25;10.00
34176;PMS7003;20450;49.074;9.158;2023-04-05T10:28:25;7.67;7.67;5.33
34176;PMS7003;20450;49.074;9.158;2023-04-05T10:31:00;12.00;12.00;9.00
34176;PMS7003;20450;49.074;9.158;2023-04-05T10:33:44;10.33;8.00;7.00
34176;PMS7003;20450;49.074;9.158;2023-04-05T10:36:17;12.25;12.00;8.00
34176;PMS7003;20450;49.074;9.158;2023-04-05T10:39:02;10.75;10.75;7.00
34176;PMS7003;20450;49.074;9.158;2023-04-05T10:44:36;9.00;9.00;7.25
34176;PMS7003;20450;49.074;9.158;2023-04-05T10:47:08;13.00;13.00;10.00
34176;PMS7003;20450;49.074;9.158;2023-04-05T10:49:42;16.00;12.33;8.67
34176;PMS7003;20450;49.074;9.158;2023-04-05T10:52:18;14.67;13.00;10.00
34176;PMS7003;20450;49.074;9.158;2023-04-05T10:58:31;16.00;12.00;9.25
34176;PMS7003;20450;49.074;9.158;2023-04-05T11:01:01;10.00;10.00;9.00
34176;PMS7003;20450;49.074;9.158;2023-04-05T11:03:46;9.50;6.50;6.00
34176;PMS7003;20450;49.074;9.158;2023-04-05T11:06:22;12.25;10.25;9.00
34176;PMS7003;20450;49.074;9.158;2023-04-05T11:08:59;9.75;8.00;6.25
34176;PMS7003;20450;49.074;9.158;2023-04-05T11:11:38;11.75;11.75;9.50
34176;PMS7003;20450;49.074;9.158;2023-04-05T11:14:17;8.75;8.25;7.50
34176;PMS7003;20450;49.074;9.158;2023-04-05T11:16:51;11.00;11.00;9.25
34176;PMS7003;20450;49.074;9.158;2023-04-05T11:19:20;11.75;11.75;10.00
34176;PMS7003;20450;49.074;9.158;2023-04-05T11:22:23;12.60;12.00;10.00
34176;PMS7003;20450;49.074;9.158;2023-04-05T11:24:53;11.60;11.60;9.80
34176;PMS7003;20450;49.074;9.158;2023-04-05T11:27:27;9.80;9.80;8.40
34176;PMS7003;20450;49.074;9.158;2023-04-05T11:29:56;10.60;9.20;8.60
34176;PMS7003;20450;49.074;9.158;2023-04-05T11:32:36;15.20;12.60;9.40
34176;PMS7003;20450;49.074;9.158;2023-04-05T11:35:05;11.20;9.80;8.00
34176;PMS7003;20450;49.074;9.158;2023-04-05T11:40:38;12.80;12.80;11.00
34176;PMS7003;20450;49.074;9.158;2023-04-05T11:43:06;10.60;10.60;8.80
34176;PMS7003;20450;49.074;9.158;2023-04-05T11:45:38;12.75;12.75;9.00
34176;PMS7003;20450;49.074;9.158;2023-04-05T11:48:07;10.00;9.25;7.25
34176;PMS7003;20450;49.074;9.158;2023-04-05T11:50:36;15.75;12.75;9.00
34176;PMS7003;20450;49.074;9.158;2023-04-05T11:53:10;11.25;11.25;8.00
34176;PMS7003;20450;49.074;9.158;2023-04-05T11:55:40;13.00;10.75;8.00
34176;PMS7003;20450;49.074;9.158;2023-04-05T11:58:10;12.00;11.00;7.25
34176;PMS7003;20450;49.074;9.158;2023-04-05T12:00:42;10.50;10.00;7.00
34176;PMS7003;20450;49.074;9.158;2023-04-05T12:06:28;11.25;11.25;10.00
34176;PMS7003;20450;49.074;9.158;2023-04-05T12:08:55;17.00;15.25;10.75
34176;PMS7003;20450;49.074;9.158;2023-04-05T12:11:25;15.75;15.00;10.50
34176;PMS7003;20450;49.074;9.158;2023-04-05T12:13:54;16.25;13.75;10.50
34176;PMS7003;20450;49.074;9.158;2023-04-05T12:16:23;10.00;10.00;7.50
34176;PMS7003;20450;49.074;9.158;2023-04-05T12:18:53;14.25;13.25;10.00
34176;PMS7003;20450;49.074;9.158;2023-04-05T12:21:22;10.75;10.75;7.75
34176;PMS7003;20450;49.074;9.158;2023-04-05T12:23:51;12.75;11.25;7.75
34176;PMS7003;20450;49.074;9.158;2023-04-05T12:26:19;12.00;12.00;8.25
34176;PMS7003;20450;49.074;9.158;2023-04-05T12:28:52;13.50;9.75;7.75
34176;PMS7003;20450;49.074;9.158;2023-04-05T12:31:33;12.33;10.67;7.67
34176;PMS7003;20450;49.074;9.158;2023-04-05T12:34:02;14.67;12.33;9.33
34176;PMS7003;20450;49.074;9.158;2023-04-05T12:36:30;13.00;11.00;9.33
34176;PMS7003;20450;49.074;9.158;2023-04-05T12:38:57;11.00;10.00;7.67
34176;PMS7003;20450;49.074;9.158;2023-04-05T12:41:28;10.67;10.33;7.00
34176;PMS7003;20450;49.074;9.158;2023-04-05T12:43:57;17.00;16.25;11.00
34176;PMS7003;20450;49.074;9.158;2023-04-05T12:46:36;16.00;10.67;8.00
34176;PMS7003;20450;49.074;9.158;2023-04-05T12:49:05;10.33;10.33;8.00
34176;PMS7003;20450;49.074;9.158;2023-04-05T12:51:35;13.00;11.25;9.00
34176;PMS7003;20450;49.074;9.158;2023-04-05T12:54:06;12.50;12.50;9.50
34176;PMS7003;20450;49.074;9.158;2023-04-05T12:56:33;15.50;15.50;10.00
34176;PMS7003;20450;49.074;9.158;2023-04-05T12:59:02;10.50;10.50;9.00
34176;PMS7003;20450;49.074;9.158;2023-04-05T13:01:32;15.00;15.00;10.00
34176;PMS7003;20450;49.074;9.158;2023-04-05T13:04:00;16.00;13.25;10.50
34176;PMS7003;20450;49.074;9.158;2023-04-05T13:06:43;10.25;10.25;6.50
34176;PMS7003;20450;49.074;9.158;2023-04-05T13:09:10;12.75;12.75;10.25
34176;PMS7003;20450;49.074;9.158;2023-04-05T13:11:37;12.75;11.50;9.25
34176;PMS7003;20450;49.074;9.158;2023-04-05T13:14:05;13.50;13.50;10.50
34176;PMS7003;20450;49.074;9.158;2023-04-05T13:16:32;14.75;14.75;10.00
34176;PMS7003;20450;49.074;9.158;2023-04-05T13:19:00;14.00;12.25;10.75
34176;PMS7003;20450;49.074;9.158;2023-04-05T13:21:27;12.25;12.25;9.50
34176;PMS7003;20450;49.074;9.158;2023-04-05T13:23:54;14.75;10.50;9.00
34176;PMS7003;20450;49.074;9.158;2023-04-05T13:26:20;16.50;13.50;9.00
34176;PMS7003;20450;49.074;9.158;2023-04-05T13:28:47;17.50;16.75;11.00
34176;PMS7003;20450;49.074;9.158;2023-04-05T13:34:03;8.00;7.25;6.00
34176;PMS7003;20450;49.074;9.158;2023-04-05T13:36:33;16.75;13.50;11.00
34176;PMS7003;20450;49.074;9.158;2023-04-05T13:39:01;24.00;18.75;11.75
34176;PMS7003;20450;49.074;9.158;2023-04-05T13:41:28;15.00;13.50;9.75
34176;PMS7003;20450;49.074;9.158;2023-04-05T13:43:55;11.67;9.33;7.00
34176;PMS7003;20450;49.074;9.158;2023-04-05T13:46:22;10.67;10.33;8.33
34176;PMS7003;20450;49.074;9.158;2023-04-05T13:48:50;9.25;7.50;4.75
34176;PMS7003;20450;49.074;9.158;2023-04-05T13:51:18;14.00;11.50;8.00
34176;PMS7003;20450;49.074;9.158;2023-04-05T13:53:45;15.75;14.25;9.75
34176;PMS7003;20450;49.074;9.158;2023-04-05T13:56:12;12.50;11.25;8.50
34176;PMS7003;20450;49.074;9.158;2023-04-05T13:58:39;13.25;10.75;7.75
34176;PMS7003;20450;49.074;9.158;2023-04-05T14:01:07;8.25;6.50;3.75
34176;PMS7003;20450;49.074;9.158;2023-04-05T14:03:34;15.00;14.00;10.00
34176;PMS7003;20450;49.074;9.158;2023-04-05T14:06:03;12.75;12.75;11.25
34176;PMS7003;20450;49.074;9.158;2023-04-05T14:08:30;12.25;12.25;9.75
34176;PMS7003;20450;49.074;9.158;2023-04-05T14:10:57;16.00;16.00;12.50
34176;PMS7003;20450;49.074;9.158;2023-04-05T14:13:24;17.00;17.00;12.00
34176;PMS7003;20450;49.074;9.158;2023-04-05T14:15:52;13.25;9.25;7.50
34176;PMS7003;20450;49.074;9.158;2023-04-05T14:18:19;9.75;4.50;2.00
34176;PMS7003;20450;49.074;9.158;2023-04-05T14:20:46;6.50;6.25;4.00
34176;PMS7003;20450;49.074;9.158;2023-04-05T14:23:15;10.00;9.00;6.50
34176;PMS7003;20450;49.074;9.158;2023-04-05T14:25:42;15.00;12.75;10.00
34176;PMS7003;20450;49.074;9.158;2023-04-05T14:28:09;22.00;20.50;11.75
34176;PMS7003;20450;49.074;9.158;2023-04-05T14:30:36;9.75;9.00;6.50
34176;PMS7003;20450;49.074;9.158;2023-04-05T14:33:03;11.50;11.50;8.50
34176;PMS7003;20450;49.074;9.158;2023-04-05T14:35:31;12.50;12.00;9.00
34176;PMS7003;20450;49.074;9.158;2023-04-05T14:37:59;15.25;12.50;10.00
34176;PMS7003;20450;49.074;9.158;2023-04-05T14:40:28;13.50;9.50;7.00
34176;PMS7003;20450;49.074;9.158;2023-04-05T14:42:55;9.75;6.50;5.00